Time;durP1;ratioP1;P1;durP2;ratioP2;P2;SDS_P1;SDS_P2;PMS_P1;PMS_P2;Temp;Humidity;BMP_temperature;BMP_pressure;BME280_temperature;BME280_humidity;BME280_pressure;Samples;Min_cycle;Max_cycle;Signal;HPM_P1;HPM_P2
2021/11/13 00:00:49;;;;;;;11.13;5.90;;;;;;;7.49;42.30;94265.03;4999766;28;20359;-74
2021/11/13 00:03:15;;;;;;;12.20;7.43;;;;;;;7.56;42.49;94286.66;5009691;28;20046;-77
2021/11/13 00:05:43;;;;;;;12.57;6.93;;;;;;;7.52;42.35;94290.16;5013697;28;20886;-76
2021/11/13 00:08:10;;;;;;;10.10;6.55;;;;;;;7.50;42.16;94293.06;5010323;28;20049;-75
2021/11/13 00:10:36;;;;;;;10.98;6.63;;;;;;;7.36;42.34;94273.66;5013165;28;20038;-76
2021/11/13 00:13:05;;;;;;;10.35;6.45;;;;;;;7.40;42.20;94297.69;5015096;28;20041;-76
2021/11/13 00:15:30;;;;;;;12.02;7.22;;;;;;;7.12;42.24;94262.25;5009799;28;20052;-77
2021/11/13 00:17:56;;;;;;;13.55;7.40;;;;;;;7.37;42.37;94293.75;5016417;28;20033;-76
2021/11/13 00:20:24;;;;;;;12.63;8.38;;;;;;;7.43;42.01;94294.50;5011060;28;20056;-75
2021/11/13 00:22:50;;;;;;;15.32;9.35;;;;;;;7.42;42.22;94283.13;5012381;28;20111;-76
2021/11/13 00:25:15;;;;;;;15.52;10.73;;;;;;;7.44;42.21;94285.47;5006695;28;20057;-76
2021/11/13 00:27:42;;;;;;;14.77;9.07;;;;;;;7.12;42.04;94243.75;5004674;28;20652;-76
2021/11/13 00:30:09;;;;;;;14.60;9.48;;;;;;;7.29;41.97;94266.03;5004087;28;20373;-77
2021/11/13 00:32:35;;;;;;;18.38;9.18;;;;;;;7.32;42.10;94277.13;5009994;28;20058;-77
2021/11/13 00:35:01;;;;;;;14.75;8.93;;;;;;;7.03;42.13;94248.88;5016372;28;20127;-73
2021/11/13 00:37:27;;;;;;;14.13;9.15;;;;;;;7.32;42.14;94293.81;5016596;28;20046;-76
2021/11/13 00:39:52;;;;;;;17.52;7.85;;;;;;;7.26;42.21;94292.28;5010379;28;20936;-77
2021/11/13 00:42:18;;;;;;;18.42;9.60;;;;;;;7.07;42.26;94278.19;5004663;28;20042;-77
2021/11/13 00:44:43;;;;;;;16.27;8.63;;;;;;;7.09;42.67;94281.34;5011325;28;20064;-76
2021/11/13 00:47:09;;;;;;;13.70;8.00;;;;;;;7.15;42.82;94293.44;5001710;28;20408;-76
2021/11/13 00:49:35;;;;;;;12.60;8.32;;;;;;;7.13;42.65;94301.66;5017457;28;20038;-76
2021/11/13 00:52:01;;;;;;;14.57;8.80;;;;;;;7.02;42.61;94271.09;4998676;28;20025;-76
2021/11/13 00:54:30;;;;;;;19.30;8.27;;;;;;;7.14;42.69;94289.22;5014587;28;20551;-73
2021/11/13 00:56:56;;;;;;;15.93;7.47;;;;;;;7.04;42.71;94286.69;5023039;28;20052;-76
2021/11/13 00:59:23;;;;;;;14.85;7.15;;;;;;;7.01;42.99;94280.09;5011412;28;20042;-76
2021/11/13 01:01:48;;;;;;;15.13;7.65;;;;;;;6.94;42.91;94269.06;5014891;28;20046;-75
2021/11/13 01:04:14;;;;;;;18.25;9.40;;;;;;;7.05;42.79;94275.00;5009157;28;20037;-76
2021/11/13 01:06:39;;;;;;;13.02;7.07;;;;;;;7.07;42.56;94267.59;5020219;28;20504;-76
2021/11/13 01:09:05;;;;;;;10.18;7.05;;;;;;;7.18;42.59;94280.47;5002832;28;20475;-75
2021/11/13 01:11:30;;;;;;;15.20;7.80;;;;;;;7.21;42.41;94276.44;5012467;28;20812;-76
2021/11/13 01:13:57;;;;;;;12.90;7.45;;;;;;;7.16;42.52;94273.84;5011965;28;20038;-77
2021/11/13 01:16:24;;;;;;;13.65;8.25;;;;;;;7.21;42.21;94268.50;5015099;28;20037;-77
2021/11/13 01:18:50;;;;;;;15.40;8.75;;;;;;;7.01;41.97;94231.69;5015646;28;20037;-77
2021/11/13 01:21:16;;;;;;;19.23;9.02;;;;;;;7.30;41.88;94272.13;5004291;28;20538;-76
2021/11/13 01:23:41;;;;;;;14.27;8.57;;;;;;;7.18;42.02;94264.59;5009079;28;20092;-77
2021/11/13 01:26:07;;;;;;;18.70;8.30;;;;;;;7.33;41.68;94266.28;5010165;28;20474;-75
2021/11/13 01:28:33;;;;;;;16.60;9.07;;;;;;;7.33;41.86;94263.63;5006755;28;20041;-77
2021/11/13 01:30:58;;;;;;;13.00;7.60;;;;;;;7.38;41.56;94274.16;5012305;28;20025;-77
2021/11/13 01:33:24;;;;;;;15.00;8.57;;;;;;;7.18;41.75;94251.34;5009277;28;20045;-77
2021/11/13 01:35:50;;;;;;;11.32;5.97;;;;;;;7.34;41.88;94272.38;5020620;28;20034;-76
2021/11/13 01:38:16;;;;;;;9.55;4.90;;;;;;;7.19;41.82;94265.38;5004795;28;20049;-77
2021/11/13 01:40:42;;;;;;;9.27;5.65;;;;;;;7.23;41.24;94251.31;5016247;28;20108;-78
2021/11/13 01:43:08;;;;;;;9.13;5.38;;;;;;;7.39;41.21;94270.44;5006688;28;20487;-79
2021/11/13 01:45:33;;;;;;;7.72;4.60;;;;;;;7.18;41.49;94250.56;5008415;28;20032;-75
2021/11/13 01:47:59;;;;;;;9.55;4.50;;;;;;;6.92;41.63;94228.09;5015480;28;20045;-76
2021/11/13 01:50:31;;;;;;;10.48;5.53;;;;;;;7.09;41.71;94268.88;5017546;28;20633;-76
2021/11/13 01:52:56;;;;;;;12.38;6.13;;;;;;;6.94;41.98;94253.19;5004414;28;20061;-76
2021/11/13 01:55:23;;;;;;;11.07;6.43;;;;;;;7.01;42.19;94269.50;5013049;28;20065;-73
2021/11/13 01:57:49;;;;;;;9.82;5.55;;;;;;;7.03;42.05;94272.66;5014239;28;20068;-76
2021/11/13 02:00:27;;;;;;;7.90;4.75;;;;;;;7.00;42.10;94261.84;4999579;28;20049;-75
2021/11/13 02:02:53;;;;;;;5.30;4.55;;;;;;;6.90;41.81;94232.88;5009332;28;20104;-76
2021/11/13 02:05:19;;;;;;;7.55;4.50;;;;;;;7.06;41.86;94260.72;5018201;28;20527;-77
2021/11/13 02:07:45;;;;;;;6.53;4.35;;;;;;;6.97;41.78;94262.41;5012714;28;20045;-74
2021/11/13 02:10:12;;;;;;;8.30;5.05;;;;;;;6.94;42.02;94261.13;5019529;28;20155;-76
2021/11/13 02:12:38;;;;;;;8.13;4.95;;;;;;;6.84;42.37;94238.22;5016134;28;20527;-76
2021/11/13 02:15:13;;;;;;;8.00;4.85;;;;;;;6.95;42.07;94261.88;5021483;28;20049;-73
2021/11/13 02:17:39;;;;;;;6.75;4.85;;;;;;;6.89;42.10;94261.16;5033630;28;20034;-77
2021/11/13 02:20:25;;;;;;;22.48;8.98;;;;;;;6.74;42.34;94226.94;5023714;28;20037;-77
2021/11/13 02:22:52;;;;;;;9.30;5.07;;;;;;;6.90;42.12;94261.97;5017201;28;20317;-77
2021/11/13 02:25:19;;;;;;;8.20;4.60;;;;;;;6.84;42.09;94246.16;5018766;28;20025;-75
2021/11/13 02:27:45;;;;;;;9.50;4.68;;;;;;;6.81;42.12;94251.19;5010783;28;20077;-77
2021/11/13 02:30:14;;;;;;;8.88;4.55;;;;;;;6.85;42.28;94257.47;5013178;28;20037;-74
2021/11/13 02:32:41;;;;;;;9.73;4.72;;;;;;;6.81;42.22;94254.63;5018610;28;20045;-75
2021/11/13 02:35:09;;;;;;;7.88;5.13;;;;;;;6.73;42.67;94257.88;5016565;28;20033;-76
2021/11/13 02:37:36;;;;;;;7.55;5.55;;;;;;;6.75;42.53;94252.31;5006666;28;20886;-73
2021/11/13 02:40:07;;;;;;;8.98;5.68;;;;;;;6.73;42.62;94251.78;5015593;28;20052;-75
2021/11/13 02:42:34;;;;;;;8.13;4.97;;;;;;;6.67;42.59;94237.03;5020993;28;20104;-76
2021/11/13 02:45:00;;;;;;;7.78;5.75;;;;;;;6.75;42.58;94262.88;5011013;28;20075;-76
2021/11/13 02:47:26;;;;;;;9.43;5.57;;;;;;;6.75;42.40;94260.25;5014796;28;20562;-77
2021/11/13 02:49:53;;;;;;;13.70;6.18;;;;;;;6.50;42.36;94226.88;5013775;28;20057;-76
2021/11/13 02:52:19;;;;;;;8.18;5.43;;;;;;;6.56;42.54;94235.53;5015577;28;20040;-77
2021/11/13 02:54:46;;;;;;;10.27;5.82;;;;;;;6.65;42.42;94255.81;5022946;28;20032;-74
2021/11/13 02:57:15;;;;;;;13.65;6.18;;;;;;;6.73;42.45;94257.88;5015124;28;20095;-74
2021/11/13 02:59:45;;;;;;;8.27;5.63;;;;;;;6.70;42.19;94253.13;5017727;28;20060;-78
2021/11/13 03:02:11;;;;;;;7.47;4.72;;;;;;;6.67;42.68;94256.31;5018682;28;20038;-77
2021/11/13 03:04:37;;;;;;;6.65;4.57;;;;;;;6.55;42.40;94242.69;5020474;28;20041;-77
2021/11/13 03:07:03;;;;;;;8.85;5.30;;;;;;;6.63;42.57;94252.66;5009046;28;20235;-77
2021/11/13 03:09:29;;;;;;;7.18;4.35;;;;;;;6.46;42.71;94236.41;5010335;28;20302;-77
2021/11/13 03:11:54;;;;;;;7.78;5.40;;;;;;;6.46;42.67;94244.34;5016129;28;20030;-78
2021/11/13 03:14:20;;;;;;;11.57;6.78;;;;;;;6.59;42.49;94266.72;5015333;28;20110;-77
2021/11/13 03:16:46;;;;;;;12.30;6.35;;;;;;;6.47;42.67;94248.56;5019816;28;20038;-77
2021/11/13 03:19:12;;;;;;;10.02;4.95;;;;;;;6.50;42.69;94261.25;5019334;28;20045;-77
2021/11/13 03:21:39;;;;;;;9.90;4.53;;;;;;;6.41;42.81;94249.66;5009427;28;20331;-75
2021/11/13 03:24:04;;;;;;;6.18;4.35;;;;;;;6.57;42.57;94264.34;5016697;28;20042;-77
2021/11/13 03:26:31;;;;;;;9.13;4.95;;;;;;;6.47;42.41;94247.78;5010507;28;20076;-77
2021/11/13 03:29:03;;;;;;;7.22;4.82;;;;;;;6.52;42.48;94261.72;5011313;28;20050;-77
2021/11/13 03:31:29;;;;;;;6.82;4.55;;;;;;;6.38;42.86;94256.28;5013344;28;20065;-76
2021/11/13 03:33:55;;;;;;;10.80;5.15;;;;;;;6.27;42.74;94254.00;5017259;28;20351;-76
2021/11/13 03:36:22;;;;;;;12.55;5.82;;;;;;;6.26;42.92;94261.13;5007792;28;20034;-77
2021/11/13 03:38:50;;;;;;;8.45;4.75;;;;;;;6.27;43.11;94264.56;5012605;28;20037;-77
2021/11/13 03:41:21;;;;;;;8.90;5.35;;;;;;;6.22;42.99;94265.38;5023808;28;20064;-76
2021/11/13 03:43:47;;;;;;;10.02;5.28;;;;;;;6.28;42.75;94276.72;5018320;28;20037;-76
2021/11/13 03:46:14;;;;;;;10.73;5.53;;;;;;;6.23;43.21;94269.59;5010511;28;20075;-77
2021/11/13 03:48:41;;;;;;;9.15;5.32;;;;;;;6.19;43.05;94268.59;5022248;28;20034;-77
2021/11/13 03:51:06;;;;;;;10.68;5.65;;;;;;;6.15;43.00;94251.69;5003016;28;20041;-75
2021/11/13 03:53:33;;;;;;;10.40;5.20;;;;;;;6.18;42.97;94255.63;5035645;28;20034;-74
2021/11/13 03:55:59;;;;;;;6.47;4.38;;;;;;;6.20;43.19;94254.31;5015765;28;20381;-76
2021/11/13 03:58:25;;;;;;;5.68;4.07;;;;;;;6.33;42.83;94266.09;5014553;28;20044;-76
2021/11/13 04:00:50;;;;;;;5.50;3.80;;;;;;;6.26;42.94;94258.47;5016898;28;20026;-77
2021/11/13 04:03:16;;;;;;;5.13;4.03;;;;;;;6.34;42.54;94270.34;5009441;28;20046;-77
2021/11/13 04:05:42;;;;;;;6.05;4.15;;;;;;;6.27;42.75;94260.06;5014682;28;20074;-76
2021/11/13 04:08:07;;;;;;;7.38;4.75;;;;;;;6.16;42.69;94252.50;5019171;28;20048;-76
2021/11/13 04:10:33;;;;;;;8.25;6.13;;;;;;;6.20;42.76;94264.88;5013153;28;20507;-76
2021/11/13 04:12:59;;;;;;;7.25;4.50;;;;;;;6.23;42.81;94280.16;5010522;28;20139;-74
2021/11/13 04:15:25;;;;;;;9.25;4.65;;;;;;;6.18;42.88;94266.22;5013026;28;20029;-76
2021/11/13 04:17:51;;;;;;;5.10;3.67;;;;;;;6.06;43.01;94247.25;5011170;28;20033;-77
2021/11/13 04:20:18;;;;;;;7.82;4.32;;;;;;;6.19;43.01;94268.59;5015254;28;20088;-76
2021/11/13 04:22:44;;;;;;;9.68;4.47;;;;;;;6.18;43.07;94277.56;5027947;28;20042;-75
2021/11/13 04:25:10;;;;;;;7.82;4.82;;;;;;;6.13;42.98;94268.84;5012608;28;20037;-76
2021/11/13 04:27:36;;;;;;;8.00;4.50;;;;;;;6.13;42.86;94261.72;5005124;28;20619;-76
2021/11/13 04:30:04;;;;;;;9.15;4.18;;;;;;;6.00;43.03;94249.94;5026757;28;20041;-75
2021/11/13 04:32:32;;;;;;;7.93;4.60;;;;;;;6.18;42.76;94277.56;5012536;28;20049;-78
2021/11/13 04:37:23;;;;;;;12.50;4.60;;;;;;;5.96;43.02;94248.09;5009266;28;20395;-77
2021/11/13 04:39:48;;;;;;;8.82;5.00;;;;;;;5.96;42.87;94253.38;5011937;28;20063;-77
2021/11/13 04:42:15;;;;;;;6.15;4.47;;;;;;;6.08;43.20;94277.59;5008934;28;20044;-75
2021/11/13 04:44:41;;;;;;;9.40;5.35;;;;;;;6.11;42.87;94281.56;5011567;28;20145;-77
2021/11/13 04:47:07;;;;;;;13.30;5.75;;;;;;;6.08;42.95;94282.88;5014301;28;20152;-78
2021/11/13 04:49:34;;;;;;;8.55;5.57;;;;;;;6.00;42.87;94280.81;5018229;28;20045;-77
2021/11/13 04:52:02;;;;;;;10.65;5.95;;;;;;;6.06;42.92;94286.88;5008948;28;20040;-75
2021/11/13 04:54:27;;;;;;;10.98;5.85;;;;;;;6.02;43.11;94288.47;5008991;28;20029;-78
2021/11/13 04:56:53;;;;;;;8.65;5.35;;;;;;;5.87;43.13;94271.63;5014038;28;20044;-76
2021/11/13 04:59:19;;;;;;;6.28;5.07;;;;;;;5.83;43.09;94260.03;5009770;28;20038;-76
2021/11/13 05:01:45;;;;;;;7.03;4.63;;;;;;;5.96;42.74;94277.94;5006137;28;20203;-77
2021/11/13 05:04:10;;;;;;;9.80;4.75;;;;;;;5.95;42.96;94267.63;5013525;28;20519;-77
2021/11/13 05:06:36;;;;;;;8.13;3.78;;;;;;;6.11;42.47;94292.13;5017005;28;20025;-77
2021/11/13 05:09:02;;;;;;;8.52;4.68;;;;;;;6.14;42.85;94294.19;5013649;28;20328;-74
2021/11/13 05:11:28;;;;;;;10.02;5.18;;;;;;;6.04;42.65;94276.56;5033798;28;20034;-77
2021/11/13 05:13:53;;;;;;;11.00;5.18;;;;;;;6.15;42.83;94283.38;5013870;28;20048;-76
2021/11/13 05:16:19;;;;;;;9.10;5.32;;;;;;;5.98;42.74;94265.25;5016810;28;20038;-75
2021/11/13 05:18:44;;;;;;;9.82;5.38;;;;;;;6.12;42.97;94281.25;5015344;28;20037;-75
2021/11/13 05:21:14;;;;;;;8.75;4.72;;;;;;;6.16;42.83;94285.00;5011516;28;20048;-73
2021/11/13 05:23:41;;;;;;;9.85;5.32;;;;;;;5.97;42.68;94268.94;5010723;28;20050;-73
2021/11/13 05:26:07;;;;;;;9.02;4.85;;;;;;;6.15;42.58;94288.66;5012762;28;20105;-77
2021/11/13 05:28:33;;;;;;;10.45;5.50;;;;;;;6.07;42.67;94286.56;5009546;28;20160;-76
2021/11/13 05:30:58;;;;;;;10.65;4.88;;;;;;;6.05;42.70;94280.00;5002324;28;20021;-74
2021/11/13 05:33:25;;;;;;;9.70;6.28;;;;;;;6.18;42.75;94289.97;5013469;28;20505;-75
2021/11/13 05:35:51;;;;;;;10.18;6.57;;;;;;;6.12;42.69;94288.38;5009944;28;20033;-76
2021/11/13 05:38:18;;;;;;;9.30;5.30;;;;;;;6.24;42.65;94302.09;5012938;28;20034;-77
2021/11/13 05:40:43;;;;;;;8.43;5.47;;;;;;;6.19;42.91;94291.56;5019029;28;20038;-77
2021/11/13 05:43:09;;;;;;;8.45;5.85;;;;;;;6.08;42.79;94288.16;5012733;28;20503;-77
2021/11/13 05:45:34;;;;;;;12.13;6.00;;;;;;;6.25;42.93;94320.31;5012187;28;20034;-77
2021/11/13 05:48:00;;;;;;;11.65;7.07;;;;;;;6.32;42.96;94312.06;5016540;28;20041;-78
2021/11/13 05:50:25;;;;;;;11.90;5.93;;;;;;;6.25;42.97;94298.41;5016509;28;20116;-76
2021/11/13 05:52:52;;;;;;;20.65;8.82;;;;;;;6.15;43.23;94306.34;5013219;28;20326;-77
2021/11/13 05:55:19;;;;;;;15.65;8.50;;;;;;;6.09;43.46;94304.78;5014748;28;20884;-77
2021/11/13 05:57:45;;;;;;;18.00;10.00;;;;;;;6.23;43.58;94324.28;5010226;28;20025;-74
2021/11/13 06:00:17;;;;;;;21.63;12.13;;;;;;;6.28;43.75;94330.31;5016132;28;20411;-77
2021/11/13 06:02:43;;;;;;;19.92;11.90;;;;;;;6.31;43.74;94323.72;5017846;28;20131;-75
2021/11/13 06:05:09;;;;;;;22.20;11.73;;;;;;;6.20;44.05;94298.44;5015074;28;20409;-77
2021/11/13 06:07:35;;;;;;;24.00;11.25;;;;;;;6.33;43.87;94311.00;5017159;28;20048;-77
2021/11/13 06:10:01;;;;;;;24.77;11.07;;;;;;;6.38;44.02;94319.69;5006387;28;20026;-78
2021/11/13 06:12:26;;;;;;;22.90;12.15;;;;;;;6.42;44.10;94319.94;5010935;28;20084;-76
2021/11/13 06:14:52;;;;;;;27.50;14.15;;;;;;;6.34;43.93;94307.31;5017644;28;20052;-78
2021/11/13 06:17:17;;;;;;;31.88;17.23;;;;;;;6.57;44.18;94333.06;5016499;28;20037;-76
2021/11/13 06:19:43;;;;;;;43.35;19.80;;;;;;;6.64;44.22;94328.25;5011316;28;20048;-76
2021/11/13 06:22:08;;;;;;;39.25;20.15;;;;;;;6.69;44.20;94333.50;5013010;28;20124;-74
2021/11/13 06:24:34;;;;;;;40.20;22.67;;;;;;;6.62;44.17;94325.09;5010394;28;20411;-76
2021/11/13 06:26:59;;;;;;;30.95;19.35;;;;;;;6.74;44.36;94322.91;5015931;28;20033;-77
2021/11/13 06:29:25;;;;;;;36.38;19.98;;;;;;;6.76;44.23;94319.97;5013020;28;20037;-75
2021/11/13 06:31:50;;;;;;;40.63;21.15;;;;;;;6.92;44.15;94333.84;5012731;28;20077;-76
2021/11/13 06:34:16;;;;;;;38.63;21.20;;;;;;;6.80;44.17;94305.91;5017030;28;20044;-75
2021/11/13 06:36:41;;;;;;;36.88;21.05;;;;;;;6.84;44.00;94303.53;5014179;28;20033;-75
2021/11/13 06:39:07;;;;;;;35.08;20.50;;;;;;;7.13;44.00;94335.25;5015488;28;20037;-75
2021/11/13 06:41:33;;;;;;;35.15;19.40;;;;;;;7.11;43.73;94321.50;5017761;28;20129;-76
2021/11/13 06:44:00;;;;;;;30.92;18.98;;;;;;;7.20;43.75;94330.41;5013998;28;20215;-75
2021/11/13 06:46:27;;;;;;;37.53;19.05;;;;;;;7.19;43.67;94328.88;5012867;28;20530;-75
2021/11/13 06:48:53;;;;;;;32.55;20.42;;;;;;;7.19;43.98;94323.56;5019448;28;20041;-76
2021/11/13 06:51:20;;;;;;;36.78;20.88;;;;;;;7.32;43.67;94328.19;5006547;28;20508;-76
2021/11/13 06:53:45;;;;;;;38.55;21.98;;;;;;;6.85;44.24;94308.50;5019264;28;20037;-77
2021/11/13 06:56:11;;;;;;;38.05;21.95;;;;;;;7.24;43.93;94320.84;5009916;28;20030;-77
2021/11/13 06:58:37;;;;;;;34.80;21.45;;;;;;;7.33;43.88;94307.81;5013764;28;20037;-77
2021/11/13 07:01:03;;;;;;;46.58;21.55;;;;;;;7.35;44.46;94348.81;5008284;28;20041;-77
2021/11/13 07:03:29;;;;;;;43.63;22.88;;;;;;;7.21;44.33;94326.72;5012613;28;20033;-77
2021/11/13 07:05:55;;;;;;;41.70;23.00;;;;;;;6.89;44.27;94300.03;5011524;28;20339;-75
2021/11/13 07:08:22;;;;;;;40.42;25.33;;;;;;;7.31;44.18;94331.91;5019657;28;20048;-75
2021/11/13 07:10:52;;;;;;;46.25;23.33;;;;;;;7.30;43.79;94319.75;5023027;28;20034;-77
2021/11/13 07:13:23;;;;;;;38.03;23.08;;;;;;;7.45;43.84;94332.81;5010769;28;20038;-78
2021/11/13 07:15:48;;;;;;;42.30;22.75;;;;;;;7.36;43.69;94342.44;5017988;28;20025;-76
2021/11/13 07:18:14;;;;;;;42.92;23.55;;;;;;;7.46;43.79;94323.03;5019260;28;20074;-76
2021/11/13 07:20:40;;;;;;;43.90;25.13;;;;;;;7.44;43.81;94336.53;5016933;28;20040;-77
2021/11/13 07:23:06;;;;;;;41.42;22.65;;;;;;;7.62;43.28;94338.47;5016923;28;20033;-76
2021/11/13 07:25:33;;;;;;;43.15;23.50;;;;;;;7.64;43.50;94330.25;5016578;28;20045;-77
2021/11/13 07:28:14;;;;;;;34.97;21.98;;;;;;;7.83;43.08;94330.31;5015995;28;20944;-77
2021/11/13 07:30:41;;;;;;;41.83;22.35;;;;;;;7.88;43.00;94323.09;5020362;28;20053;-77
2021/11/13 07:33:09;;;;;;;38.17;22.00;;;;;;;7.21;43.87;94324.06;5016137;28;20556;-76
2021/11/13 07:35:40;;;;;;;35.80;22.35;;;;;;;7.17;43.90;94336.28;5015087;28;20053;-76
2021/11/13 07:38:06;;;;;;;35.35;21.40;;;;;;;7.44;43.08;94336.53;5015265;28;20048;-77
2021/11/13 07:40:33;;;;;;;37.58;18.35;;;;;;;6.64;43.65;94316.88;5014458;28;20033;-77
2021/11/13 07:43:00;;;;;;;28.67;17.40;;;;;;;7.33;42.59;94316.56;5014967;28;20025;-77
2021/11/13 07:45:28;;;;;;;33.30;17.75;;;;;;;7.77;42.16;94308.44;5014073;28;20072;-77
2021/11/13 07:47:54;;;;;;;32.08;21.05;;;;;;;7.84;41.68;94314.16;5014145;28;20034;-77
2021/11/13 07:50:20;;;;;;;40.08;19.50;;;;;;;7.80;42.04;94329.03;5014760;28;20570;-77
2021/11/13 07:52:46;;;;;;;29.27;16.80;;;;;;;8.14;41.68;94340.28;5016398;28;20030;-77
2021/11/13 07:55:15;;;;;;;28.70;16.48;;;;;;;8.32;40.78;94329.97;5013123;28;20533;-77
2021/11/13 07:57:40;;;;;;;32.10;18.67;;;;;;;8.25;40.19;94300.41;5014853;28;20017;-78
2021/11/13 08:00:09;;;;;;;31.23;19.08;;;;;;;8.52;40.24;94330.47;5016424;28;20372;-76
2021/11/13 08:02:35;;;;;;;47.80;24.67;;;;;;;8.56;39.87;94331.47;5012005;28;20041;-78
2021/11/13 08:05:00;;;;;;;26.17;15.90;;;;;;;8.26;39.93;94342.53;5017515;28;20455;-77
2021/11/13 08:07:26;;;;;;;27.98;16.77;;;;;;;8.13;40.72;94296.31;5012377;28;20517;-77
2021/11/13 08:09:52;;;;;;;25.48;15.90;;;;;;;7.98;40.45;94332.78;5018825;28;20062;-75
2021/11/13 08:12:19;;;;;;;26.13;16.45;;;;;;;8.23;40.41;94327.16;5016516;28;20045;-74
2021/11/13 08:14:45;;;;;;;35.33;17.92;;;;;;;8.29;40.52;94320.75;5018567;28;20117;-74
2021/11/13 08:17:10;;;;;;;30.80;17.90;;;;;;;8.21;40.86;94329.34;5018960;28;20041;-76
2021/11/13 08:19:36;;;;;;;34.45;15.93;;;;;;;7.73;41.31;94333.09;5020398;28;20575;-76
2021/11/13 08:22:02;;;;;;;20.45;12.20;;;;;;;7.96;41.29;94334.94;5011826;28;20413;-74
2021/11/13 08:24:27;;;;;;;18.13;10.32;;;;;;;7.75;41.65;94315.06;5014559;28;20029;-77
2021/11/13 08:26:53;;;;;;;17.35;10.82;;;;;;;7.43;41.63;94319.09;5004939;28;20041;-76
2021/11/13 08:29:18;;;;;;;21.75;12.82;;;;;;;8.34;41.07;94328.63;5014313;28;20049;-74
2021/11/13 08:31:44;;;;;;;15.43;10.43;;;;;;;8.61;40.18;94337.81;5004005;28;20029;-77
2021/11/13 08:34:10;;;;;;;19.60;11.57;;;;;;;8.69;39.61;94324.69;5004700;28;20167;-75
2021/11/13 08:36:35;;;;;;;16.83;10.15;;;;;;;8.92;39.61;94322.97;5009507;28;20029;-74
2021/11/13 08:39:06;;;;;;;12.98;7.93;;;;;;;8.95;39.42;94331.16;5011746;28;21956;-77
2021/11/13 08:41:34;;;;;;;18.42;8.57;;;;;;;8.60;39.32;94326.41;5004747;28;20120;-73
2021/11/13 08:44:01;;;;;;;19.83;9.73;;;;;;;8.82;39.83;94329.25;5015332;28;20449;-78
2021/11/13 08:46:26;;;;;;;16.33;8.07;;;;;;;9.02;39.58;94325.47;5014044;28;20025;-77
2021/11/13 08:48:52;;;;;;;16.70;8.43;;;;;;;8.58;39.92;94323.25;5012439;28;20053;-77
2021/11/13 08:51:17;;;;;;;15.68;9.18;;;;;;;8.53;39.18;94312.72;4992518;28;20106;-78
2021/11/13 08:53:53;;;;;;;13.05;7.82;;;;;;;8.23;39.50;94298.03;5006207;28;20407;-78
2021/11/13 08:56:19;;;;;;;15.95;9.57;;;;;;;8.38;39.48;94311.06;5013738;28;20069;-76
2021/11/13 08:58:44;;;;;;;12.43;7.45;;;;;;;8.80;38.89;94304.88;5009893;28;20464;-74
2021/11/13 09:01:10;;;;;;;16.15;8.65;;;;;;;9.08;38.17;94312.91;5011953;28;20260;-77
2021/11/13 09:03:41;;;;;;;15.02;9.38;;;;;;;8.93;38.68;94308.66;5010679;28;20071;-76
2021/11/13 09:06:13;;;;;;;19.55;9.60;;;;;;;9.32;38.21;94281.72;5024359;28;20392;-77
2021/11/13 09:08:40;;;;;;;19.40;9.93;;;;;;;8.86;38.95;94302.91;5006590;28;20046;-76
2021/11/13 09:11:09;;;;;;;14.93;9.73;;;;;;;8.62;38.87;94288.97;5008268;28;20643;-78
2021/11/13 09:13:35;;;;;;;16.95;9.75;;;;;;;9.20;38.86;94282.19;5015307;28;20041;-77
2021/11/13 09:16:02;;;;;;;16.50;7.78;;;;;;;9.61;38.25;94292.88;5013578;28;20031;-78
2021/11/13 09:18:28;;;;;;;17.63;9.52;;;;;;;8.73;39.24;94301.00;5014008;28;20421;-77
2021/11/13 09:20:54;;;;;;;16.40;9.10;;;;;;;8.33;39.60;94262.63;5007928;28;20125;-77
2021/11/13 09:23:19;;;;;;;15.68;10.07;;;;;;;9.05;39.59;94279.03;5010754;28;20130;-76
2021/11/13 09:25:46;;;;;;;16.35;8.70;;;;;;;9.44;38.23;94266.88;5006138;28;20886;-73
2021/11/13 09:28:12;;;;;;;21.17;9.57;;;;;;;8.94;38.91;94281.06;5012325;28;20893;-76
2021/11/13 09:30:39;;;;;;;18.48;9.48;;;;;;;9.44;38.23;94282.03;5009232;28;20032;-77
2021/11/13 09:33:06;;;;;;;15.23;9.63;;;;;;;9.88;37.73;94281.44;5007403;28;20037;-76
2021/11/13 09:35:32;;;;;;;15.75;10.10;;;;;;;10.02;36.61;94271.59;5013437;28;20034;-78
2021/11/13 09:37:59;;;;;;;15.45;9.10;;;;;;;10.18;37.41;94280.81;5007045;28;20605;-75
2021/11/13 09:40:30;;;;;;;23.00;10.65;;;;;;;10.40;37.23;94277.44;5009389;28;20379;-79
2021/11/13 09:42:59;;;;;;;18.13;9.93;;;;;;;10.45;36.41;94273.88;5009603;28;20085;-75
2021/11/13 09:45:25;;;;;;;24.23;11.82;;;;;;;10.43;36.30;94268.06;5011277;28;20116;-77
2021/11/13 09:47:53;;;;;;;19.85;12.05;;;;;;;10.67;36.29;94249.94;5010976;28;20034;-77
2021/11/13 09:50:21;;;;;;;18.10;10.43;;;;;;;10.57;35.44;94242.22;5010386;28;20053;-77
2021/11/13 09:52:47;;;;;;;19.73;11.38;;;;;;;10.23;36.11;94254.13;5011563;28;20042;-78
2021/11/13 09:55:16;;;;;;;16.92;11.90;;;;;;;10.16;36.76;94256.41;5010026;28;20062;-76
2021/11/13 09:57:41;;;;;;;26.20;14.07;;;;;;;9.82;37.43;94258.72;5014659;28;21423;-76
2021/11/13 10:00:10;;;;;;;23.25;13.82;;;;;;;10.13;37.17;94248.22;4999962;28;20194;-78
2021/11/13 10:02:35;;;;;;;22.27;13.75;;;;;;;10.51;36.43;94238.13;5012265;28;20037;-76
2021/11/13 10:05:01;;;;;;;26.83;12.60;;;;;;;10.79;36.76;94230.78;5014309;28;20033;-76
2021/11/13 10:07:27;;;;;;;23.20;14.77;;;;;;;10.13;36.95;94246.38;5010995;28;20495;-74
2021/11/13 10:09:52;;;;;;;22.08;13.40;;;;;;;10.12;37.35;94239.47;5013565;28;20025;-76
2021/11/13 10:12:35;;;;;;;24.15;13.07;;;;;;;10.73;36.94;94227.47;5014060;28;20037;-77
2021/11/13 10:15:21;;;;;;;22.48;13.50;;;;;;;10.79;37.27;94206.84;5001841;28;20054;-75
2021/11/13 10:18:04;;;;;;;17.80;11.95;;;;;;;10.99;37.00;94223.09;5008473;28;20070;-76
2021/11/13 10:20:30;;;;;;;27.77;14.82;;;;;;;10.39;36.40;94201.41;5027388;28;20180;-76
2021/11/13 10:22:55;;;;;;;22.80;14.23;;;;;;;10.38;37.17;94223.78;5012691;28;20105;-78
2021/11/13 10:25:21;;;;;;;24.10;14.10;;;;;;;10.51;37.29;94214.97;5010153;28;20144;-75
2021/11/13 10:28:09;;;;;;;20.98;13.43;;;;;;;10.84;36.94;94212.84;5009208;28;20539;-78
2021/11/13 10:30:35;;;;;;;25.10;15.30;;;;;;;10.72;36.51;94212.59;5008744;28;20050;-77
2021/11/13 10:33:00;;;;;;;22.65;13.07;;;;;;;11.01;36.11;94186.28;5006196;28;20088;-77
2021/11/13 10:35:50;;;;;;;21.23;12.90;;;;;;;10.37;36.52;94181.56;5007247;28;20064;-76
2021/11/13 10:38:20;;;;;;;25.10;13.63;;;;;;;10.21;37.04;94200.47;5012057;28;20806;-77
2021/11/13 10:40:52;;;;;;;26.63;14.15;;;;;;;10.93;36.50;94195.03;5012894;28;20073;-78
2021/11/13 10:43:18;;;;;;;21.10;12.95;;;;;;;11.18;35.91;94189.03;5014228;28;20875;-77
2021/11/13 10:46:02;;;;;;;29.10;13.93;;;;;;;11.50;35.73;94200.41;5010639;28;20069;-77
2021/11/13 10:48:28;;;;;;;26.58;12.90;;;;;;;10.69;36.42;94189.25;5016530;28;20052;-77
2021/11/13 10:51:04;;;;;;;27.15;15.82;;;;;;;10.89;36.11;94196.72;5016220;28;20037;-77
2021/11/13 10:53:31;;;;;;;25.45;15.40;;;;;;;11.23;36.39;94187.34;5009087;28;22403;-77
2021/11/13 10:56:13;;;;;;;26.60;14.52;;;;;;;11.51;35.93;94175.38;5014326;28;20038;-76
2021/11/13 10:58:53;;;;;;;22.13;13.25;;;;;;;11.45;35.38;94172.06;5010355;28;20061;-76
2021/11/13 11:01:38;;;;;;;24.05;13.70;;;;;;;11.91;34.63;94182.22;5011129;28;20515;-77
2021/11/13 11:04:14;;;;;;;22.60;13.32;;;;;;;12.32;34.68;94183.66;5007851;28;20025;-76
2021/11/13 11:06:47;;;;;;;26.02;14.85;;;;;;;12.52;34.73;94185.66;5014496;28;20133;-78
2021/11/13 11:09:29;;;;;;;26.88;14.48;;;;;;;12.56;35.19;94180.50;5016230;28;20070;-76
2021/11/13 11:12:01;;;;;;;23.40;14.70;;;;;;;12.63;34.68;94165.59;5014464;28;20048;-77
2021/11/13 11:14:31;;;;;;;29.83;18.13;;;;;;;12.42;34.18;94170.75;5018790;28;20560;-77
2021/11/13 11:17:04;;;;;;;23.08;14.52;;;;;;;12.74;33.99;94153.47;5014691;28;23538;-76
2021/11/13 11:19:35;;;;;;;24.83;14.93;;;;;;;13.06;33.63;94172.69;5013478;28;20044;-77
2021/11/13 11:22:05;;;;;;;32.35;17.00;;;;;;;13.17;33.48;94158.69;5008931;28;20030;-76
2021/11/13 11:24:45;;;;;;;24.67;15.02;;;;;;;13.11;33.64;94135.91;5013660;28;20108;-76
2021/11/13 11:27:16;;;;;;;27.70;15.43;;;;;;;13.16;33.71;94148.31;5004366;28;20048;-77
2021/11/13 11:29:44;;;;;;;22.38;15.73;;;;;;;12.87;33.00;94155.16;5010724;28;20041;-77
2021/11/13 11:32:14;;;;;;;27.40;15.88;;;;;;;12.52;33.58;94158.97;5008331;28;20101;-77
2021/11/13 11:34:44;;;;;;;33.60;17.55;;;;;;;12.44;33.65;94115.22;5012412;28;20042;-74